sensor_id;sensor_type;location;lat;lon;timestamp;temperature;humidity
10129;DHT22;5104;50.720;7.044;2022-12-18T00:00:40;-6.70;99.90
10129;DHT22;5104;50.720;7.044;2022-12-18T00:03:08;-6.70;99.90
10129;DHT22;5104;50.720;7.044;2022-12-18T00:05:34;-6.70;99.90
10129;DHT22;5104;50.720;7.044;2022-12-18T00:08:02;-6.60;99.90
10129;DHT22;5104;50.720;7.044;2022-12-18T00:10:29;-6.60;99.90
10129;DHT22;5104;50.720;7.044;2022-12-18T00:12:57;-6.70;99.90
10129;DHT22;5104;50.720;7.044;2022-12-18T00:15:24;-6.70;99.90
10129;DHT22;5104;50.720;7.044;2022-12-18T00:17:50;-6.80;99.90
10129;DHT22;5104;50.720;7.044;2022-12-18T00:20:17;-6.80;99.90
10129;DHT22;5104;50.720;7.044;2022-12-18T00:22:50;-6.80;99.90
10129;DHT22;5104;50.720;7.044;2022-12-18T00:25:17;-6.80;99.90
10129;DHT22;5104;50.720;7.044;2022-12-18T00:27:44;-6.80;99.90
10129;DHT22;5104;50.720;7.044;2022-12-18T00:30:13;-6.80;99.90
10129;DHT22;5104;50.720;7.044;2022-12-18T00:32:40;-6.70;99.90
10129;DHT22;5104;50.720;7.044;2022-12-18T00:35:07;-6.80;99.90
10129;DHT22;5104;50.720;7.044;2022-12-18T00:37:35;-6.80;99.90
10129;DHT22;5104;50.720;7.044;2022-12-18T00:40:02;-6.80;99.90
10129;DHT22;5104;50.720;7.044;2022-12-18T00:42:30;-6.90;99.90
10129;DHT22;5104;50.720;7.044;2022-12-18T00:45:16;-6.90;99.90
10129;DHT22;5104;50.720;7.044;2022-12-18T00:47:43;-6.90;99.90
10129;DHT22;5104;50.720;7.044;2022-12-18T00:50:10;-6.90;99.90
10129;DHT22;5104;50.720;7.044;2022-12-18T00:52:39;-6.90;99.90
10129;DHT22;5104;50.720;7.044;2022-12-18T00:55:06;-6.90;99.90
10129;DHT22;5104;50.720;7.044;2022-12-18T00:57:33;-6.90;99.90
10129;DHT22;5104;50.720;7.044;2022-12-18T01:00:00;-7.00;99.90
10129;DHT22;5104;50.720;7.044;2022-12-18T01:02:29;-7.10;99.90
10129;DHT22;5104;50.720;7.044;2022-12-18T01:04:55;-7.00;99.90
10129;DHT22;5104;50.720;7.044;2022-12-18T01:07:22;-7.00;99.90
10129;DHT22;5104;50.720;7.044;2022-12-18T01:09:49;-7.00;99.90
10129;DHT22;5104;50.720;7.044;2022-12-18T01:12:16;-7.00;99.90
10129;DHT22;5104;50.720;7.044;2022-12-18T01:14:43;-7.00;99.90
10129;DHT22;5104;50.720;7.044;2022-12-18T01:17:10;-7.10;99.90
10129;DHT22;5104;50.720;7.044;2022-12-18T01:19:38;-7.00;99.90
10129;DHT22;5104;50.720;7.044;2022-12-18T01:22:05;-6.90;99.90
10129;DHT22;5104;50.720;7.044;2022-12-18T01:24:32;-7.00;99.90
10129;DHT22;5104;50.720;7.044;2022-12-18T01:26:59;-7.10;99.90
10129;DHT22;5104;50.720;7.044;2022-12-18T01:29:26;-7.00;99.90
10129;DHT22;5104;50.720;7.044;2022-12-18T01:31:57;-6.90;99.90
10129;DHT22;5104;50.720;7.044;2022-12-18T01:34:25;-6.90;99.90
10129;DHT22;5104;50.720;7.044;2022-12-18T01:36:53;-6.90;99.90
10129;DHT22;5104;50.720;7.044;2022-12-18T01:39:20;-6.90;99.90
10129;DHT22;5104;50.720;7.044;2022-12-18T01:41:47;-6.90;99.90
10129;DHT22;5104;50.720;7.044;2022-12-18T01:44:55;-6.80;99.90
10129;DHT22;5104;50.720;7.044;2022-12-18T01:47:32;-6.80;99.90
10129;DHT22;5104;50.720;7.044;2022-12-18T01:50:03;-6.80;99.90
10129;DHT22;5104;50.720;7.044;2022-12-18T01:52:33;-6.80;99.90
10129;DHT22;5104;50.720;7.044;2022-12-18T01:55:05;-6.90;99.90
10129;DHT22;5104;50.720;7.044;2022-12-18T01:57:36;-6.80;99.90
10129;DHT22;5104;50.720;7.044;2022-12-18T02:00:09;-6.80;99.90
10129;DHT22;5104;50.720;7.044;2022-12-18T02:02:37;-6.80;99.90
10129;DHT22;5104;50.720;7.044;2022-12-18T02:05:06;-6.40;99.90
10129;DHT22;5104;50.720;7.044;2022-12-18T02:07:44;-6.40;99.90
10129;DHT22;5104;50.720;7.044;2022-12-18T02:10:15;-6.30;99.90
10129;DHT22;5104;50.720;7.044;2022-12-18T02:12:49;-6.30;99.90
10129;DHT22;5104;50.720;7.044;2022-12-18T02:15:23;-6.20;99.90
10129;DHT22;5104;50.720;7.044;2022-12-18T02:17:55;-6.00;99.90
10129;DHT22;5104;50.720;7.044;2022-12-18T02:20:31;-5.90;99.90
10129;DHT22;5104;50.720;7.044;2022-12-18T02:23:09;-5.90;99.90
10129;DHT22;5104;50.720;7.044;2022-12-18T02:26:05;-5.80;99.90
10129;DHT22;5104;50.720;7.044;2022-12-18T02:28:38;-5.80;99.90
10129;DHT22;5104;50.720;7.044;2022-12-18T02:31:11;-5.60;99.90
10129;DHT22;5104;50.720;7.044;2022-12-18T02:33:40;-5.50;99.90
10129;DHT22;5104;50.720;7.044;2022-12-18T02:36:09;-5.40;99.90
10129;DHT22;5104;50.720;7.044;2022-12-18T02:38:37;-5.40;99.90
10129;DHT22;5104;50.720;7.044;2022-12-18T02:41:06;-5.20;99.90
10129;DHT22;5104;50.720;7.044;2022-12-18T02:43:33;-5.20;99.90
10129;DHT22;5104;50.720;7.044;2022-12-18T02:46:23;-5.30;99.90
10129;DHT22;5104;50.720;7.044;2022-12-18T02:48:53;-5.30;99.90
10129;DHT22;5104;50.720;7.044;2022-12-18T02:51:30;-5.30;99.90
10129;DHT22;5104;50.720;7.044;2022-12-18T02:54:09;-5.30;99.90
10129;DHT22;5104;50.720;7.044;2022-12-18T02:56:42;-5.30;99.90
10129;DHT22;5104;50.720;7.044;2022-12-18T02:59:14;-5.30;99.90
10129;DHT22;5104;50.720;7.044;2022-12-18T03:01:48;-5.20;99.90
10129;DHT22;5104;50.720;7.044;2022-12-18T03:04:20;-5.00;99.90
10129;DHT22;5104;50.720;7.044;2022-12-18T03:06:54;-4.90;99.90
10129;DHT22;5104;50.720;7.044;2022-12-18T03:09:26;-5.00;99.90
10129;DHT22;5104;50.720;7.044;2022-12-18T03:11:58;-5.00;99.90
10129;DHT22;5104;50.720;7.044;2022-12-18T03:14:46;-5.00;99.90
10129;DHT22;5104;50.720;7.044;2022-12-18T03:17:17;-5.00;99.90
10129;DHT22;5104;50.720;7.044;2022-12-18T03:19:46;-5.00;99.90
10129;DHT22;5104;50.720;7.044;2022-12-18T03:22:20;-5.00;99.90
10129;DHT22;5104;50.720;7.044;2022-12-18T03:24:49;-5.10;99.90
10129;DHT22;5104;50.720;7.044;2022-12-18T03:27:18;-5.10;99.90
10129;DHT22;5104;50.720;7.044;2022-12-18T03:29:48;-5.20;99.90
10129;DHT22;5104;50.720;7.044;2022-12-18T03:32:24;-5.20;99.90
10129;DHT22;5104;50.720;7.044;2022-12-18T03:34:52;-5.20;99.90
10129;DHT22;5104;50.720;7.044;2022-12-18T03:37:20;-5.20;99.90
10129;DHT22;5104;50.720;7.044;2022-12-18T03:39:47;-5.30;99.90
10129;DHT22;5104;50.720;7.044;2022-12-18T03:42:18;-5.30;99.90
10129;DHT22;5104;50.720;7.044;2022-12-18T03:44:55;-5.20;99.90
10129;DHT22;5104;50.720;7.044;2022-12-18T03:47:28;-5.30;99.90
10129;DHT22;5104;50.720;7.044;2022-12-18T03:50:02;-5.30;99.90
10129;DHT22;5104;50.720;7.044;2022-12-18T03:52:37;-5.30;99.90
10129;DHT22;5104;50.720;7.044;2022-12-18T03:55:05;-5.40;99.90
10129;DHT22;5104;50.720;7.044;2022-12-18T03:57:35;-5.30;99.90
10129;DHT22;5104;50.720;7.044;2022-12-18T04:00:06;-5.40;99.90
10129;DHT22;5104;50.720;7.044;2022-12-18T04:02:34;-5.40;99.90
10129;DHT22;5104;50.720;7.044;2022-12-18T04:05:05;-5.40;99.90
10129;DHT22;5104;50.720;7.044;2022-12-18T04:07:32;-5.40;99.90
10129;DHT22;5104;50.720;7.044;2022-12-18T04:10:00;-5.30;99.90
10129;DHT22;5104;50.720;7.044;2022-12-18T04:12:29;-5.40;99.90
10129;DHT22;5104;50.720;7.044;2022-12-18T04:14:58;-5.40;99.90
10129;DHT22;5104;50.720;7.044;2022-12-18T04:17:25;-5.40;99.90
10129;DHT22;5104;50.720;7.044;2022-12-18T04:19:52;-5.30;99.90
10129;DHT22;5104;50.720;7.044;2022-12-18T04:22:19;-5.30;99.90
10129;DHT22;5104;50.720;7.044;2022-12-18T04:24:45;-5.30;99.90
10129;DHT22;5104;50.720;7.044;2022-12-18T04:27:12;-5.30;99.90
10129;DHT22;5104;50.720;7.044;2022-12-18T04:29:40;-5.30;99.90
10129;DHT22;5104;50.720;7.044;2022-12-18T04:32:08;-5.30;99.90
10129;DHT22;5104;50.720;7.044;2022-12-18T04:34:35;-5.20;99.90
10129;DHT22;5104;50.720;7.044;2022-12-18T04:37:02;-5.20;99.90
10129;DHT22;5104;50.720;7.044;2022-12-18T04:39:29;-5.20;99.90
10129;DHT22;5104;50.720;7.044;2022-12-18T04:41:56;-5.20;99.90
10129;DHT22;5104;50.720;7.044;2022-12-18T04:44:23;-5.20;99.90
10129;DHT22;5104;50.720;7.044;2022-12-18T04:46:50;-5.10;99.90
10129;DHT22;5104;50.720;7.044;2022-12-18T04:49:18;-5.10;99.90
10129;DHT22;5104;50.720;7.044;2022-12-18T04:51:45;-5.10;99.90
10129;DHT22;5104;50.720;7.044;2022-12-18T04:54:11;-5.20;99.90
10129;DHT22;5104;50.720;7.044;2022-12-18T04:56:38;-5.10;99.90
10129;DHT22;5104;50.720;7.044;2022-12-18T04:59:05;-5.20;99.90
10129;DHT22;5104;50.720;7.044;2022-12-18T05:01:32;-5.20;99.90
10129;DHT22;5104;50.720;7.044;2022-12-18T05:03:59;-5.30;99.90
10129;DHT22;5104;50.720;7.044;2022-12-18T05:06:27;-5.30;99.90
10129;DHT22;5104;50.720;7.044;2022-12-18T05:08:54;-5.20;99.90
10129;DHT22;5104;50.720;7.044;2022-12-18T05:11:20;-5.20;99.90
10129;DHT22;5104;50.720;7.044;2022-12-18T05:13:47;-5.20;99.90
10129;DHT22;5104;50.720;7.044;2022-12-18T05:16:14;-5.10;99.90
10129;DHT22;5104;50.720;7.044;2022-12-18T05:18:41;-5.00;99.90
10129;DHT22;5104;50.720;7.044;2022-12-18T05:21:08;-5.10;99.90
10129;DHT22;5104;50.720;7.044;2022-12-18T05:23:36;-5.10;99.90
10129;DHT22;5104;50.720;7.044;2022-12-18T05:26:05;-5.10;99.90
10129;DHT22;5104;50.720;7.044;2022-12-18T05:28:34;-5.10;99.90
10129;DHT22;5104;50.720;7.044;2022-12-18T05:31:02;-5.00;99.90
10129;DHT22;5104;50.720;7.044;2022-12-18T05:33:31;-5.10;99.90
10129;DHT22;5104;50.720;7.044;2022-12-18T05:35:59;-5.10;99.90
10129;DHT22;5104;50.720;7.044;2022-12-18T05:38:27;-5.00;99.90
10129;DHT22;5104;50.720;7.044;2022-12-18T05:40:56;-5.00;99.90
10129;DHT22;5104;50.720;7.044;2022-12-18T05:43:24;-5.00;99.90
10129;DHT22;5104;50.720;7.044;2022-12-18T05:45:52;-5.10;99.90
10129;DHT22;5104;50.720;7.044;2022-12-18T05:48:19;-5.00;99.90
10129;DHT22;5104;50.720;7.044;2022-12-18T05:50:48;-5.10;99.90
10129;DHT22;5104;50.720;7.044;2022-12-18T05:53:16;-5.10;99.90
10129;DHT22;5104;50.720;7.044;2022-12-18T05:55:45;-5.10;99.90
10129;DHT22;5104;50.720;7.044;2022-12-18T05:58:14;-5.10;99.90
10129;DHT22;5104;50.720;7.044;2022-12-18T06:00:43;-5.10;99.90
10129;DHT22;5104;50.720;7.044;2022-12-18T06:03:11;-5.20;99.90
10129;DHT22;5104;50.720;7.044;2022-12-18T06:05:40;-5.10;99.90
10129;DHT22;5104;50.720;7.044;2022-12-18T06:08:08;-5.10;99.90
10129;DHT22;5104;50.720;7.044;2022-12-18T06:10:35;-5.10;99.90
10129;DHT22;5104;50.720;7.044;2022-12-18T06:13:02;-5.10;99.90
10129;DHT22;5104;50.720;7.044;2022-12-18T06:15:30;-5.20;99.90
10129;DHT22;5104;50.720;7.044;2022-12-18T06:17:57;-5.30;99.90
10129;DHT22;5104;50.720;7.044;2022-12-18T06:20:24;-5.30;99.90
10129;DHT22;5104;50.720;7.044;2022-12-18T06:22:51;-5.20;99.90
10129;DHT22;5104;50.720;7.044;2022-12-18T06:25:18;-5.20;99.90
10129;DHT22;5104;50.720;7.044;2022-12-18T06:27:47;-5.20;99.90
10129;DHT22;5104;50.720;7.044;2022-12-18T06:30:14;-5.20;99.90
10129;DHT22;5104;50.720;7.044;2022-12-18T06:32:42;-5.20;99.90
10129;DHT22;5104;50.720;7.044;2022-12-18T06:35:10;-5.10;99.90
10129;DHT22;5104;50.720;7.044;2022-12-18T06:37:36;-5.10;99.90
10129;DHT22;5104;50.720;7.044;2022-12-18T06:40:04;-5.10;99.90
10129;DHT22;5104;50.720;7.044;2022-12-18T06:42:31;-5.00;99.90
10129;DHT22;5104;50.720;7.044;2022-12-18T06:44:58;-5.00;99.90
10129;DHT22;5104;50.720;7.044;2022-12-18T06:47:25;-5.10;99.90
10129;DHT22;5104;50.720;7.044;2022-12-18T06:49:53;-5.10;99.90
10129;DHT22;5104;50.720;7.044;2022-12-18T06:52:20;-5.20;99.90
10129;DHT22;5104;50.720;7.044;2022-12-18T06:54:47;-5.20;99.90
10129;DHT22;5104;50.720;7.044;2022-12-18T06:57:14;-5.10;99.90
10129;DHT22;5104;50.720;7.044;2022-12-18T06:59:40;-5.20;99.90
10129;DHT22;5104;50.720;7.044;2022-12-18T07:02:10;-5.10;99.90
10129;DHT22;5104;50.720;7.044;2022-12-18T07:04:37;-5.10;99.90
10129;DHT22;5104;50.720;7.044;2022-12-18T07:07:05;-5.10;99.90
10129;DHT22;5104;50.720;7.044;2022-12-18T07:09:32;-5.20;99.90
10129;DHT22;5104;50.720;7.044;2022-12-18T07:11:59;-5.30;99.90
10129;DHT22;5104;50.720;7.044;2022-12-18T07:14:26;-5.30;99.90
10129;DHT22;5104;50.720;7.044;2022-12-18T07:16:53;-5.20;99.90
10129;DHT22;5104;50.720;7.044;2022-12-18T07:19:20;-5.20;99.90
10129;DHT22;5104;50.720;7.044;2022-12-18T07:21:47;-5.10;99.90
10129;DHT22;5104;50.720;7.044;2022-12-18T07:24:15;-5.10;99.90
10129;DHT22;5104;50.720;7.044;2022-12-18T07:26:42;-5.00;99.90
10129;DHT22;5104;50.720;7.044;2022-12-18T07:29:09;-5.00;99.90
10129;DHT22;5104;50.720;7.044;2022-12-18T07:31:35;-5.10;99.90
10129;DHT22;5104;50.720;7.044;2022-12-18T07:34:02;-5.10;99.90
10129;DHT22;5104;50.720;7.044;2022-12-18T07:36:29;-5.10;99.90
10129;DHT22;5104;50.720;7.044;2022-12-18T07:38:56;-5.10;99.90
10129;DHT22;5104;50.720;7.044;2022-12-18T07:41:24;-5.10;99.90
10129;DHT22;5104;50.720;7.044;2022-12-18T07:43:51;-5.10;99.90
10129;DHT22;5104;50.720;7.044;2022-12-18T07:46:19;-5.00;99.90
10129;DHT22;5104;50.720;7.044;2022-12-18T07:48:46;-5.00;99.90
10129;DHT22;5104;50.720;7.044;2022-12-18T07:51:13;-4.90;99.90
10129;DHT22;5104;50.720;7.044;2022-12-18T07:53:40;-4.90;99.90
10129;DHT22;5104;50.720;7.044;2022-12-18T07:56:10;-4.90;99.90
10129;DHT22;5104;50.720;7.044;2022-12-18T07:58:38;-4.80;99.90
10129;DHT22;5104;50.720;7.044;2022-12-18T08:01:07;-4.80;99.90
10129;DHT22;5104;50.720;7.044;2022-12-18T08:03:34;-4.70;99.90
10129;DHT22;5104;50.720;7.044;2022-12-18T08:06:02;-4.70;99.90
10129;DHT22;5104;50.720;7.044;2022-12-18T08:08:30;-4.60;99.90
10129;DHT22;5104;50.720;7.044;2022-12-18T08:10:57;-4.60;99.90
10129;DHT22;5104;50.720;7.044;2022-12-18T08:13:25;-4.60;99.90
10129;DHT22;5104;50.720;7.044;2022-12-18T08:15:58;-4.50;99.90
10129;DHT22;5104;50.720;7.044;2022-12-18T08:18:25;-4.40;99.90
10129;DHT22;5104;50.720;7.044;2022-12-18T08:20:52;-4.40;99.90
10129;DHT22;5104;50.720;7.044;2022-12-18T08:23:19;-4.30;99.90
10129;DHT22;5104;50.720;7.044;2022-12-18T08:25:46;-4.30;99.90
10129;DHT22;5104;50.720;7.044;2022-12-18T08:28:13;-4.20;99.90
10129;DHT22;5104;50.720;7.044;2022-12-18T08:30:40;-4.20;99.90
10129;DHT22;5104;50.720;7.044;2022-12-18T08:33:09;-4.10;99.90
10129;DHT22;5104;50.720;7.044;2022-12-18T08:35:36;-4.10;99.90
10129;DHT22;5104;50.720;7.044;2022-12-18T08:38:03;-4.00;99.90
10129;DHT22;5104;50.720;7.044;2022-12-18T08:40:30;-4.00;99.90
10129;DHT22;5104;50.720;7.044;2022-12-18T08:42:57;-3.90;99.90
10129;DHT22;5104;50.720;7.044;2022-12-18T08:45:41;-3.80;99.90
10129;DHT22;5104;50.720;7.044;2022-12-18T08:48:10;-3.70;99.90
10129;DHT22;5104;50.720;7.044;2022-12-18T08:50:36;-3.70;99.90
10129;DHT22;5104;50.720;7.044;2022-12-18T08:53:03;-3.60;99.90
10129;DHT22;5104;50.720;7.044;2022-12-18T08:55:30;-3.60;99.90
10129;DHT22;5104;50.720;7.044;2022-12-18T08:57:57;-3.50;99.90
10129;DHT22;5104;50.720;7.044;2022-12-18T09:00:24;-3.50;99.90
10129;DHT22;5104;50.720;7.044;2022-12-18T09:02:51;-3.40;99.90
10129;DHT22;5104;50.720;7.044;2022-12-18T09:05:19;-3.40;99.90
10129;DHT22;5104;50.720;7.044;2022-12-18T09:07:46;-3.30;99.90
10129;DHT22;5104;50.720;7.044;2022-12-18T09:10:12;-3.20;99.90
10129;DHT22;5104;50.720;7.044;2022-12-18T09:12:39;-3.20;99.90
10129;DHT22;5104;50.720;7.044;2022-12-18T09:15:06;-3.20;99.90
10129;DHT22;5104;50.720;7.044;2022-12-18T09:17:33;-3.20;99.90
10129;DHT22;5104;50.720;7.044;2022-12-18T09:20:00;-3.10;99.90
10129;DHT22;5104;50.720;7.044;2022-12-18T09:22:28;-3.10;99.90
10129;DHT22;5104;50.720;7.044;2022-12-18T09:24:56;-3.00;99.90
10129;DHT22;5104;50.720;7.044;2022-12-18T09:27:22;-3.00;99.90
10129;DHT22;5104;50.720;7.044;2022-12-18T09:29:49;-2.90;99.90
10129;DHT22;5104;50.720;7.044;2022-12-18T09:32:16;-2.90;99.90
10129;DHT22;5104;50.720;7.044;2022-12-18T09:34:43;-2.80;99.90
10129;DHT22;5104;50.720;7.044;2022-12-18T09:37:10;-2.80;99.90
10129;DHT22;5104;50.720;7.044;2022-12-18T09:39:38;-2.70;99.90
10129;DHT22;5104;50.720;7.044;2022-12-18T09:42:05;-2.60;99.90
10129;DHT22;5104;50.720;7.044;2022-12-18T09:44:35;-2.60;99.90
10129;DHT22;5104;50.720;7.044;2022-12-18T09:47:07;-2.50;99.90
10129;DHT22;5104;50.720;7.044;2022-12-18T09:49:37;-2.60;99.90
10129;DHT22;5104;50.720;7.044;2022-12-18T09:52:09;-2.60;99.90
10129;DHT22;5104;50.720;7.044;2022-12-18T09:54:40;-2.50;99.90
10129;DHT22;5104;50.720;7.044;2022-12-18T09:57:13;-2.50;99.90
10129;DHT22;5104;50.720;7.044;2022-12-18T09:59:42;-2.30;99.90
10129;DHT22;5104;50.720;7.044;2022-12-18T10:02:19;-2.40;99.90
10129;DHT22;5104;50.720;7.044;2022-12-18T10:05:00;-2.30;99.90
10129;DHT22;5104;50.720;7.044;2022-12-18T10:07:35;-2.10;99.90
10129;DHT22;5104;50.720;7.044;2022-12-18T10:10:13;-2.10;99.90
10129;DHT22;5104;50.720;7.044;2022-12-18T10:12:44;-2.00;99.90
10129;DHT22;5104;50.720;7.044;2022-12-18T10:15:21;-2.00;99.90
10129;DHT22;5104;50.720;7.044;2022-12-18T10:17:55;-2.00;99.90
10129;DHT22;5104;50.720;7.044;2022-12-18T10:20:31;-1.90;99.90
10129;DHT22;5104;50.720;7.044;2022-12-18T10:23:04;-1.80;85.70
10129;DHT22;5104;50.720;7.044;2022-12-18T10:25:44;-1.90;1.00
10129;DHT22;5104;50.720;7.044;2022-12-18T10:28:17;-2.00;99.90
10129;DHT22;5104;50.720;7.044;2022-12-18T10:30:46;-1.90;99.90
10129;DHT22;5104;50.720;7.044;2022-12-18T10:33:19;-1.80;99.90
10129;DHT22;5104;50.720;7.044;2022-12-18T10:35:48;-1.70;95.70
10129;DHT22;5104;50.720;7.044;2022-12-18T10:38:24;-1.70;1.00
10129;DHT22;5104;50.720;7.044;2022-12-18T10:40:56;-1.70;99.90
10129;DHT22;5104;50.720;7.044;2022-12-18T10:43:25;-1.70;1.00
10129;DHT22;5104;50.720;7.044;2022-12-18T10:46:02;-1.70;1.00
10129;DHT22;5104;50.720;7.044;2022-12-18T10:48:31;-1.70;16.70
10129;DHT22;5104;50.720;7.044;2022-12-18T10:50:58;-1.80;99.90
10129;DHT22;5104;50.720;7.044;2022-12-18T10:53:28;-1.60;99.90
10129;DHT22;5104;50.720;7.044;2022-12-18T10:55:58;-1.50;99.90
10129;DHT22;5104;50.720;7.044;2022-12-18T10:58:27;-1.60;1.00
10129;DHT22;5104;50.720;7.044;2022-12-18T11:01:07;-1.50;1.00
10129;DHT22;5104;50.720;7.044;2022-12-18T11:03:36;-1.40;1.00
10129;DHT22;5104;50.720;7.044;2022-12-18T11:06:06;-1.30;1.00
10129;DHT22;5104;50.720;7.044;2022-12-18T11:08:33;-1.30;99.90
10129;DHT22;5104;50.720;7.044;2022-12-18T11:11:02;-1.30;1.00
10129;DHT22;5104;50.720;7.044;2022-12-18T11:13:30;-1.30;1.00
10129;DHT22;5104;50.720;7.044;2022-12-18T11:15:58;-1.40;99.90
10129;DHT22;5104;50.720;7.044;2022-12-18T11:18:27;-1.40;1.00
10129;DHT22;5104;50.720;7.044;2022-12-18T11:20:56;-1.20;1.00
10129;DHT22;5104;50.720;7.044;2022-12-18T11:23:24;-1.30;1.00
10129;DHT22;5104;50.720;7.044;2022-12-18T11:25:54;-1.30;99.90
10129;DHT22;5104;50.720;7.044;2022-12-18T11:28:29;-1.20;91.20
10129;DHT22;5104;50.720;7.044;2022-12-18T11:31:33;-1.20;67.70
10129;DHT22;5104;50.720;7.044;2022-12-18T11:34:03;-1.10;1.00
10129;DHT22;5104;50.720;7.044;2022-12-18T11:36:34;-1.20;1.00
10129;DHT22;5104;50.720;7.044;2022-12-18T11:39:09;-1.20;1.00
10129;DHT22;5104;50.720;7.044;2022-12-18T11:41:43;-1.30;1.00
10129;DHT22;5104;50.720;7.044;2022-12-18T11:44:38;-1.40;1.00
10129;DHT22;5104;50.720;7.044;2022-12-18T11:47:12;-1.30;99.90
10129;DHT22;5104;50.720;7.044;2022-12-18T11:49:41;-1.30;99.90
10129;DHT22;5104;50.720;7.044;2022-12-18T11:52:15;-1.30;55.40
10129;DHT22;5104;50.720;7.044;2022-12-18T11:54:43;-1.20;99.90
10129;DHT22;5104;50.720;7.044;2022-12-18T11:57:20;-1.20;87.20
10129;DHT22;5104;50.720;7.044;2022-12-18T12:00:02;-1.10;1.00
10129;DHT22;5104;50.720;7.044;2022-12-18T12:02:57;-1.00;99.90
10129;DHT22;5104;50.720;7.044;2022-12-18T12:05:45;-1.20;1.00
10129;DHT22;5104;50.720;7.044;2022-12-18T12:08:20;-1.20;34.20
10129;DHT22;5104;50.720;7.044;2022-12-18T12:10:58;-1.20;40.00
10129;DHT22;5104;50.720;7.044;2022-12-18T12:13:38;-1.30;1.00
10129;DHT22;5104;50.720;7.044;2022-12-18T12:16:17;-1.20;86.60
10129;DHT22;5104;50.720;7.044;2022-12-18T12:18:57;-1.30;1.00
10129;DHT22;5104;50.720;7.044;2022-12-18T12:21:35;-1.10;1.00
10129;DHT22;5104;50.720;7.044;2022-12-18T12:24:11;-1.30;1.00
10129;DHT22;5104;50.720;7.044;2022-12-18T12:26:48;-1.20;99.90
10129;DHT22;5104;50.720;7.044;2022-12-18T12:29:32;-1.20;1.00
10129;DHT22;5104;50.720;7.044;2022-12-18T12:32:22;-1.10;99.90
10129;DHT22;5104;50.720;7.044;2022-12-18T12:35:03;-1.00;1.00
10129;DHT22;5104;50.720;7.044;2022-12-18T12:37:39;-1.10;1.00
10129;DHT22;5104;50.720;7.044;2022-12-18T12:40:14;-1.10;1.00
10129;DHT22;5104;50.720;7.044;2022-12-18T12:42:47;-1.20;99.90
10129;DHT22;5104;50.720;7.044;2022-12-18T12:45:37;-1.10;99.90
10129;DHT22;5104;50.720;7.044;2022-12-18T12:48:16;-1.10;99.90
10129;DHT22;5104;50.720;7.044;2022-12-18T12:50:45;-1.00;1.00
10129;DHT22;5104;50.720;7.044;2022-12-18T12:53:21;-1.00;99.90
10129;DHT22;5104;50.720;7.044;2022-12-18T12:55:50;-0.80;87.00
10129;DHT22;5104;50.720;7.044;2022-12-18T12:58:24;-0.90;1.00
10129;DHT22;5104;50.720;7.044;2022-12-18T13:01:03;-0.90;1.00
10129;DHT22;5104;50.720;7.044;2022-12-18T13:03:43;-1.10;99.90
10129;DHT22;5104;50.720;7.044;2022-12-18T13:06:16;-1.10;99.90
10129;DHT22;5104;50.720;7.044;2022-12-18T13:08:55;-1.10;99.90
10129;DHT22;5104;50.720;7.044;2022-12-18T13:11:36;-1.10;99.90
10129;DHT22;5104;50.720;7.044;2022-12-18T13:14:23;-1.00;1.00
10129;DHT22;5104;50.720;7.044;2022-12-18T13:16:50;-0.80;1.00
10129;DHT22;5104;50.720;7.044;2022-12-18T13:19:26;-1.00;1.00
10129;DHT22;5104;50.720;7.044;2022-12-18T13:21:54;-0.90;99.90
10129;DHT22;5104;50.720;7.044;2022-12-18T13:24:25;-0.90;1.00
10129;DHT22;5104;50.720;7.044;2022-12-18T13:26:52;-1.00;1.00
10129;DHT22;5104;50.720;7.044;2022-12-18T13:29:40;-1.10;1.00
10129;DHT22;5104;50.720;7.044;2022-12-18T13:32:20;-1.00;1.00
10129;DHT22;5104;50.720;7.044;2022-12-18T13:34:48;-1.10;94.40
10129;DHT22;5104;50.720;7.044;2022-12-18T13:37:40;-1.20;99.90
10129;DHT22;5104;50.720;7.044;2022-12-18T13:43:24;-1.30;99.90
10129;DHT22;5104;50.720;7.044;2022-12-18T13:46:01;-1.20;1.00
10129;DHT22;5104;50.720;7.044;2022-12-18T13:48:31;-1.20;24.20
10129;DHT22;5104;50.720;7.044;2022-12-18T13:51:03;-1.10;1.00
10129;DHT22;5104;50.720;7.044;2022-12-18T13:53:35;-1.20;1.00
10129;DHT22;5104;50.720;7.044;2022-12-18T13:56:03;-1.30;1.00
10129;DHT22;5104;50.720;7.044;2022-12-18T13:58:30;-1.20;1.00
10129;DHT22;5104;50.720;7.044;2022-12-18T14:00:57;-1.30;1.00
10129;DHT22;5104;50.720;7.044;2022-12-18T14:03:29;-1.30;1.00
10129;DHT22;5104;50.720;7.044;2022-12-18T14:06:01;-1.30;30.50
10129;DHT22;5104;50.720;7.044;2022-12-18T14:08:34;-1.40;99.90
10129;DHT22;5104;50.720;7.044;2022-12-18T14:11:04;-1.30;95.70
10129;DHT22;5104;50.720;7.044;2022-12-18T14:13:35;-1.30;67.80
10129;DHT22;5104;50.720;7.044;2022-12-18T14:16:04;-1.40;90.90
10129;DHT22;5104;50.720;7.044;2022-12-18T14:18:38;-1.40;99.90
10129;DHT22;5104;50.720;7.044;2022-12-18T14:21:20;-1.50;99.90
10129;DHT22;5104;50.720;7.044;2022-12-18T14:23:48;-1.50;1.00
10129;DHT22;5104;50.720;7.044;2022-12-18T14:26:22;-1.60;1.00
10129;DHT22;5104;50.720;7.044;2022-12-18T14:28:50;-1.50;1.00
10129;DHT22;5104;50.720;7.044;2022-12-18T14:31:20;-1.60;1.00
10129;DHT22;5104;50.720;7.044;2022-12-18T14:33:48;-1.60;1.00
10129;DHT22;5104;50.720;7.044;2022-12-18T14:36:18;-1.70;1.00
10129;DHT22;5104;50.720;7.044;2022-12-18T14:38:49;-1.60;1.00
10129;DHT22;5104;50.720;7.044;2022-12-18T14:41:18;-1.70;99.90
10129;DHT22;5104;50.720;7.044;2022-12-18T14:43:47;-1.70;1.00
10129;DHT22;5104;50.720;7.044;2022-12-18T14:46:30;-1.70;95.50
10129;DHT22;5104;50.720;7.044;2022-12-18T14:48:58;-1.70;1.00
10129;DHT22;5104;50.720;7.044;2022-12-18T14:51:28;-1.70;1.00
10129;DHT22;5104;50.720;7.044;2022-12-18T14:53:56;-1.80;1.00
10129;DHT22;5104;50.720;7.044;2022-12-18T14:56:26;-1.80;8.50
10129;DHT22;5104;50.720;7.044;2022-12-18T14:58:54;-1.80;99.90
10129;DHT22;5104;50.720;7.044;2022-12-18T15:01:25;-1.90;92.50
10129;DHT22;5104;50.720;7.044;2022-12-18T15:03:53;-1.90;1.00
10129;DHT22;5104;50.720;7.044;2022-12-18T15:06:30;-1.90;6.20
10129;DHT22;5104;50.720;7.044;2022-12-18T15:08:58;-1.90;1.00
10129;DHT22;5104;50.720;7.044;2022-12-18T15:11:27;-1.80;1.00
10129;DHT22;5104;50.720;7.044;2022-12-18T15:13:56;-1.80;1.00
10129;DHT22;5104;50.720;7.044;2022-12-18T15:16:24;-1.90;99.90
10129;DHT22;5104;50.720;7.044;2022-12-18T15:18:53;-1.80;99.90
10129;DHT22;5104;50.720;7.044;2022-12-18T15:21:21;-1.80;1.00
10129;DHT22;5104;50.720;7.044;2022-12-18T15:23:51;-1.90;99.90
10129;DHT22;5104;50.720;7.044;2022-12-18T15:26:20;-1.80;99.90
10129;DHT22;5104;50.720;7.044;2022-12-18T15:28:48;-1.90;1.00
10129;DHT22;5104;50.720;7.044;2022-12-18T15:31:28;-1.90;99.90
10129;DHT22;5104;50.720;7.044;2022-12-18T15:34:23;-1.90;1.00
10129;DHT22;5104;50.720;7.044;2022-12-18T15:36:50;-1.80;94.50
10129;DHT22;5104;50.720;7.044;2022-12-18T15:39:19;-1.80;1.00
10129;DHT22;5104;50.720;7.044;2022-12-18T15:41:46;-1.80;99.90
10129;DHT22;5104;50.720;7.044;2022-12-18T15:44:27;-1.80;1.00
10129;DHT22;5104;50.720;7.044;2022-12-18T15:46:54;-1.80;1.00
10129;DHT22;5104;50.720;7.044;2022-12-18T15:49:21;-1.80;1.00
10129;DHT22;5104;50.720;7.044;2022-12-18T15:51:51;-1.80;1.00
10129;DHT22;5104;50.720;7.044;2022-12-18T15:54:20;-1.70;1.00
10129;DHT22;5104;50.720;7.044;2022-12-18T15:57:09;-1.70;99.90
10129;DHT22;5104;50.720;7.044;2022-12-18T15:59:51;-1.70;1.00
10129;DHT22;5104;50.720;7.044;2022-12-18T16:02:20;-1.70;1.00
10129;DHT22;5104;50.720;7.044;2022-12-18T16:04:49;-1.70;99.90
10129;DHT22;5104;50.720;7.044;2022-12-18T16:07:16;-1.70;1.00
10129;DHT22;5104;50.720;7.044;2022-12-18T16:09:44;-1.80;99.90
10129;DHT22;5104;50.720;7.044;2022-12-18T16:12:16;-1.80;1.00
10129;DHT22;5104;50.720;7.044;2022-12-18T16:14:43;-1.70;1.00